sensor_id;sensor_type;location;lat;lon;timestamp;P1;durP1;ratioP1;P2;durP2;ratioP2
72611;SDS011;60655;52.182;4.474;2022-12-18T00:00:24;51.03;;;14.45;;
72611;SDS011;60655;52.182;4.474;2022-12-18T00:02:25;45.60;;;15.57;;
72611;SDS011;60655;52.182;4.474;2022-12-18T00:04:26;42.08;;;14.35;;
72611;SDS011;60655;52.182;4.474;2022-12-18T00:06:28;51.47;;;15.13;;
72611;SDS011;60655;52.182;4.474;2022-12-18T00:08:30;44.40;;;14.38;;
72611;SDS011;60655;52.182;4.474;2022-12-18T00:10:31;47.33;;;15.18;;
72611;SDS011;60655;52.182;4.474;2022-12-18T00:12:32;43.15;;;14.15;;
72611;SDS011;60655;52.182;4.474;2022-12-18T00:14:33;49.33;;;15.57;;
72611;SDS011;60655;52.182;4.474;2022-12-18T00:16:34;52.42;;;16.13;;
72611;SDS011;60655;52.182;4.474;2022-12-18T00:18:37;49.35;;;18.20;;
72611;SDS011;60655;52.182;4.474;2022-12-18T00:20:38;45.85;;;14.80;;
72611;SDS011;60655;52.182;4.474;2022-12-18T00:22:40;52.70;;;16.00;;
72611;SDS011;60655;52.182;4.474;2022-12-18T00:24:41;45.00;;;15.05;;
72611;SDS011;60655;52.182;4.474;2022-12-18T00:26:42;39.63;;;14.32;;
72611;SDS011;60655;52.182;4.474;2022-12-18T00:28:43;42.15;;;14.68;;
72611;SDS011;60655;52.182;4.474;2022-12-18T00:30:45;39.78;;;13.45;;
72611;SDS011;60655;52.182;4.474;2022-12-18T00:32:46;41.25;;;14.25;;
72611;SDS011;60655;52.182;4.474;2022-12-18T00:34:47;44.85;;;14.60;;
72611;SDS011;60655;52.182;4.474;2022-12-18T00:36:48;42.05;;;14.30;;
72611;SDS011;60655;52.182;4.474;2022-12-18T00:40:50;42.83;;;13.90;;
72611;SDS011;60655;52.182;4.474;2022-12-18T00:42:51;34.55;;;12.75;;
72611;SDS011;60655;52.182;4.474;2022-12-18T00:44:58;41.92;;;14.40;;
72611;SDS011;60655;52.182;4.474;2022-12-18T00:46:59;49.05;;;13.80;;
72611;SDS011;60655;52.182;4.474;2022-12-18T00:48:59;45.85;;;13.20;;
72611;SDS011;60655;52.182;4.474;2022-12-18T00:51:00;48.13;;;16.13;;
72611;SDS011;60655;52.182;4.474;2022-12-18T00:53:01;51.30;;;16.08;;
72611;SDS011;60655;52.182;4.474;2022-12-18T00:55:02;48.08;;;14.90;;
72611;SDS011;60655;52.182;4.474;2022-12-18T00:57:03;51.60;;;15.48;;
72611;SDS011;60655;52.182;4.474;2022-12-18T00:59:04;56.15;;;16.65;;
72611;SDS011;60655;52.182;4.474;2022-12-18T01:01:06;48.58;;;15.02;;
72611;SDS011;60655;52.182;4.474;2022-12-18T01:03:07;45.30;;;13.02;;
72611;SDS011;60655;52.182;4.474;2022-12-18T01:05:09;49.72;;;15.60;;
72611;SDS011;60655;52.182;4.474;2022-12-18T01:07:11;47.10;;;15.27;;
72611;SDS011;60655;52.182;4.474;2022-12-18T01:09:12;50.70;;;14.27;;
72611;SDS011;60655;52.182;4.474;2022-12-18T01:11:15;45.97;;;15.73;;
72611;SDS011;60655;52.182;4.474;2022-12-18T01:13:17;45.40;;;15.30;;
72611;SDS011;60655;52.182;4.474;2022-12-18T01:15:18;46.40;;;12.88;;
72611;SDS011;60655;52.182;4.474;2022-12-18T01:17:21;46.05;;;14.25;;
72611;SDS011;60655;52.182;4.474;2022-12-18T01:19:22;51.45;;;13.40;;
72611;SDS011;60655;52.182;4.474;2022-12-18T01:21:24;47.38;;;13.48;;
72611;SDS011;60655;52.182;4.474;2022-12-18T01:23:26;38.30;;;12.85;;
72611;SDS011;60655;52.182;4.474;2022-12-18T01:25:27;53.15;;;16.92;;
72611;SDS011;60655;52.182;4.474;2022-12-18T01:27:28;45.22;;;12.40;;
72611;SDS011;60655;52.182;4.474;2022-12-18T01:29:29;43.85;;;13.95;;
72611;SDS011;60655;52.182;4.474;2022-12-18T01:31:31;48.58;;;14.32;;
72611;SDS011;60655;52.182;4.474;2022-12-18T01:33:33;48.38;;;14.93;;
72611;SDS011;60655;52.182;4.474;2022-12-18T01:35:39;47.83;;;15.65;;
72611;SDS011;60655;52.182;4.474;2022-12-18T01:37:41;47.33;;;14.05;;
72611;SDS011;60655;52.182;4.474;2022-12-18T01:39:42;52.83;;;15.38;;
72611;SDS011;60655;52.182;4.474;2022-12-18T01:41:43;50.75;;;15.45;;
72611;SDS011;60655;52.182;4.474;2022-12-18T01:44:46;43.40;;;14.68;;
72611;SDS011;60655;52.182;4.474;2022-12-18T01:46:43;34.40;;;11.65;;
72611;SDS011;60655;52.182;4.474;2022-12-18T01:48:44;54.65;;;13.13;;
72611;SDS011;60655;52.182;4.474;2022-12-18T01:50:51;48.33;;;14.45;;
72611;SDS011;60655;52.182;4.474;2022-12-18T01:54:56;43.67;;;13.95;;
72611;SDS011;60655;52.182;4.474;2022-12-18T01:56:57;44.75;;;14.40;;
72611;SDS011;60655;52.182;4.474;2022-12-18T01:59:00;46.92;;;13.48;;
72611;SDS011;60655;52.182;4.474;2022-12-18T02:01:04;43.53;;;14.07;;
72611;SDS011;60655;52.182;4.474;2022-12-18T02:03:05;39.97;;;14.35;;
72611;SDS011;60655;52.182;4.474;2022-12-18T02:05:06;46.88;;;15.23;;
72611;SDS011;60655;52.182;4.474;2022-12-18T02:09:42;45.20;;;13.07;;
72611;SDS011;60655;52.182;4.474;2022-12-18T02:12:06;44.83;;;13.07;;
72611;SDS011;60655;52.182;4.474;2022-12-18T02:18:41;45.25;;;14.25;;
72611;SDS011;60655;52.182;4.474;2022-12-18T02:20:52;43.95;;;14.02;;
72611;SDS011;60655;52.182;4.474;2022-12-18T02:23:00;42.72;;;13.95;;
72611;SDS011;60655;52.182;4.474;2022-12-18T02:25:40;52.17;;;14.75;;
72611;SDS011;60655;52.182;4.474;2022-12-18T02:29:53;39.80;;;11.95;;
72611;SDS011;60655;52.182;4.474;2022-12-18T02:31:58;37.38;;;11.40;;
72611;SDS011;60655;52.182;4.474;2022-12-18T02:34:01;39.95;;;13.25;;
72611;SDS011;60655;52.182;4.474;2022-12-18T02:36:04;32.55;;;11.18;;
72611;SDS011;60655;52.182;4.474;2022-12-18T02:38:07;39.30;;;12.02;;
72611;SDS011;60655;52.182;4.474;2022-12-18T02:40:08;48.72;;;13.52;;
72611;SDS011;60655;52.182;4.474;2022-12-18T02:42:11;41.92;;;13.00;;
72611;SDS011;60655;52.182;4.474;2022-12-18T02:44:13;37.63;;;12.10;;
72611;SDS011;60655;52.182;4.474;2022-12-18T02:48:33;37.47;;;12.63;;
72611;SDS011;60655;52.182;4.474;2022-12-18T02:50:37;37.45;;;12.20;;
72611;SDS011;60655;52.182;4.474;2022-12-18T02:57:46;41.95;;;14.35;;
72611;SDS011;60655;52.182;4.474;2022-12-18T03:00:10;41.53;;;12.20;;
72611;SDS011;60655;52.182;4.474;2022-12-18T03:02:20;37.67;;;12.90;;
72611;SDS011;60655;52.182;4.474;2022-12-18T03:04:30;34.85;;;11.35;;
72611;SDS011;60655;52.182;4.474;2022-12-18T03:06:32;33.38;;;11.60;;
72611;SDS011;60655;52.182;4.474;2022-12-18T03:08:38;33.08;;;11.82;;
72611;SDS011;60655;52.182;4.474;2022-12-18T03:10:45;35.20;;;12.30;;
72611;SDS011;60655;52.182;4.474;2022-12-18T03:13:10;31.88;;;10.38;;
72611;SDS011;60655;52.182;4.474;2022-12-18T03:15:16;34.63;;;11.82;;
72611;SDS011;60655;52.182;4.474;2022-12-18T03:17:22;34.53;;;12.50;;
72611;SDS011;60655;52.182;4.474;2022-12-18T03:19:26;35.00;;;11.73;;
72611;SDS011;60655;52.182;4.474;2022-12-18T03:21:49;36.67;;;11.98;;
72611;SDS011;60655;52.182;4.474;2022-12-18T03:23:54;39.72;;;10.90;;
72611;SDS011;60655;52.182;4.474;2022-12-18T03:25:57;39.75;;;12.13;;
72611;SDS011;60655;52.182;4.474;2022-12-18T03:28:01;33.90;;;12.27;;
72611;SDS011;60655;52.182;4.474;2022-12-18T03:30:09;43.05;;;12.07;;
72611;SDS011;60655;52.182;4.474;2022-12-18T03:32:17;31.92;;;12.20;;
72611;SDS011;60655;52.182;4.474;2022-12-18T03:34:29;39.42;;;12.40;;
72611;SDS011;60655;52.182;4.474;2022-12-18T03:36:33;34.80;;;11.80;;
72611;SDS011;60655;52.182;4.474;2022-12-18T03:38:34;43.92;;;13.05;;
72611;SDS011;60655;52.182;4.474;2022-12-18T03:40:38;40.53;;;12.63;;
72611;SDS011;60655;52.182;4.474;2022-12-18T03:42:50;43.45;;;13.52;;
72611;SDS011;60655;52.182;4.474;2022-12-18T03:44:58;32.67;;;11.70;;
72611;SDS011;60655;52.182;4.474;2022-12-18T03:47:09;44.92;;;13.15;;
72611;SDS011;60655;52.182;4.474;2022-12-18T03:49:25;37.40;;;11.60;;
72611;SDS011;60655;52.182;4.474;2022-12-18T03:54:01;39.60;;;12.07;;
72611;SDS011;60655;52.182;4.474;2022-12-18T03:56:04;38.13;;;12.63;;
72611;SDS011;60655;52.182;4.474;2022-12-18T03:58:07;30.67;;;11.57;;
72611;SDS011;60655;52.182;4.474;2022-12-18T04:00:13;34.25;;;11.23;;
72611;SDS011;60655;52.182;4.474;2022-12-18T04:02:16;35.85;;;12.48;;
72611;SDS011;60655;52.182;4.474;2022-12-18T04:04:18;38.88;;;11.73;;
72611;SDS011;60655;52.182;4.474;2022-12-18T04:06:20;33.88;;;12.02;;
72611;SDS011;60655;52.182;4.474;2022-12-18T04:10:24;32.38;;;10.88;;
72611;SDS011;60655;52.182;4.474;2022-12-18T04:12:25;33.45;;;10.80;;
72611;SDS011;60655;52.182;4.474;2022-12-18T04:14:27;37.03;;;11.75;;
72611;SDS011;60655;52.182;4.474;2022-12-18T04:16:28;35.85;;;12.93;;
72611;SDS011;60655;52.182;4.474;2022-12-18T04:20:30;30.38;;;10.85;;
72611;SDS011;60655;52.182;4.474;2022-12-18T04:22:31;31.40;;;9.85;;
72611;SDS011;60655;52.182;4.474;2022-12-18T04:24:32;27.77;;;9.38;;
72611;SDS011;60655;52.182;4.474;2022-12-18T04:26:33;32.05;;;11.75;;
72611;SDS011;60655;52.182;4.474;2022-12-18T04:30:35;35.33;;;12.23;;
72611;SDS011;60655;52.182;4.474;2022-12-18T04:32:36;34.35;;;10.00;;
72611;SDS011;60655;52.182;4.474;2022-12-18T04:34:37;29.55;;;11.35;;
72611;SDS011;60655;52.182;4.474;2022-12-18T04:36:38;33.95;;;11.50;;
72611;SDS011;60655;52.182;4.474;2022-12-18T04:38:39;41.45;;;11.27;;
72611;SDS011;60655;52.182;4.474;2022-12-18T04:40:40;30.08;;;10.93;;
72611;SDS011;60655;52.182;4.474;2022-12-18T04:42:41;30.65;;;10.15;;
72611;SDS011;60655;52.182;4.474;2022-12-18T04:44:42;39.97;;;11.85;;
72611;SDS011;60655;52.182;4.474;2022-12-18T04:46:43;29.73;;;10.45;;
72611;SDS011;60655;52.182;4.474;2022-12-18T04:48:45;38.05;;;12.23;;
72611;SDS011;60655;52.182;4.474;2022-12-18T04:50:46;26.77;;;10.20;;
72611;SDS011;60655;52.182;4.474;2022-12-18T04:52:48;37.25;;;11.10;;
72611;SDS011;60655;52.182;4.474;2022-12-18T04:54:49;36.40;;;12.02;;
72611;SDS011;60655;52.182;4.474;2022-12-18T04:56:50;32.03;;;10.95;;
72611;SDS011;60655;52.182;4.474;2022-12-18T04:58:51;32.47;;;11.88;;
72611;SDS011;60655;52.182;4.474;2022-12-18T05:00:52;37.97;;;11.23;;
72611;SDS011;60655;52.182;4.474;2022-12-18T05:02:53;37.17;;;12.40;;
72611;SDS011;60655;52.182;4.474;2022-12-18T05:04:54;32.08;;;10.85;;
72611;SDS011;60655;52.182;4.474;2022-12-18T05:06:55;26.95;;;10.48;;
72611;SDS011;60655;52.182;4.474;2022-12-18T05:08:56;34.95;;;11.43;;
72611;SDS011;60655;52.182;4.474;2022-12-18T05:11:00;34.28;;;10.40;;
72611;SDS011;60655;52.182;4.474;2022-12-18T05:13:12;33.42;;;10.18;;
72611;SDS011;60655;52.182;4.474;2022-12-18T05:15:13;32.47;;;11.25;;
72611;SDS011;60655;52.182;4.474;2022-12-18T05:17:14;33.42;;;12.05;;
72611;SDS011;60655;52.182;4.474;2022-12-18T05:19:15;33.08;;;11.32;;
72611;SDS011;60655;52.182;4.474;2022-12-18T05:21:16;31.35;;;11.38;;
72611;SDS011;60655;52.182;4.474;2022-12-18T05:23:17;34.88;;;10.63;;
72611;SDS011;60655;52.182;4.474;2022-12-18T05:25:19;34.17;;;11.48;;
72611;SDS011;60655;52.182;4.474;2022-12-18T05:29:21;32.25;;;11.38;;
72611;SDS011;60655;52.182;4.474;2022-12-18T05:31:22;31.88;;;12.13;;
72611;SDS011;60655;52.182;4.474;2022-12-18T05:33:24;35.47;;;12.88;;
72611;SDS011;60655;52.182;4.474;2022-12-18T05:35:26;25.73;;;10.10;;
72611;SDS011;60655;52.182;4.474;2022-12-18T05:37:27;28.98;;;10.93;;
72611;SDS011;60655;52.182;4.474;2022-12-18T05:39:28;27.67;;;9.88;;
72611;SDS011;60655;52.182;4.474;2022-12-18T05:41:29;27.50;;;9.75;;
72611;SDS011;60655;52.182;4.474;2022-12-18T05:43:30;31.17;;;10.13;;
72611;SDS011;60655;52.182;4.474;2022-12-18T05:45:31;30.50;;;10.20;;
72611;SDS011;60655;52.182;4.474;2022-12-18T05:47:32;28.98;;;9.57;;
72611;SDS011;60655;52.182;4.474;2022-12-18T05:49:33;32.15;;;10.18;;
72611;SDS011;60655;52.182;4.474;2022-12-18T05:51:34;29.85;;;10.95;;
72611;SDS011;60655;52.182;4.474;2022-12-18T05:53:35;29.58;;;10.75;;
72611;SDS011;60655;52.182;4.474;2022-12-18T05:55:38;29.30;;;11.05;;
72611;SDS011;60655;52.182;4.474;2022-12-18T05:57:40;30.88;;;10.10;;
72611;SDS011;60655;52.182;4.474;2022-12-18T05:59:41;30.50;;;11.80;;
72611;SDS011;60655;52.182;4.474;2022-12-18T06:01:42;28.67;;;10.38;;
72611;SDS011;60655;52.182;4.474;2022-12-18T06:03:43;34.85;;;10.60;;
72611;SDS011;60655;52.182;4.474;2022-12-18T06:05:45;32.65;;;11.65;;
72611;SDS011;60655;52.182;4.474;2022-12-18T06:07:46;33.60;;;12.23;;
72611;SDS011;60655;52.182;4.474;2022-12-18T06:09:47;28.25;;;11.07;;
72611;SDS011;60655;52.182;4.474;2022-12-18T06:11:48;27.55;;;9.13;;
72611;SDS011;60655;52.182;4.474;2022-12-18T06:13:50;30.25;;;10.55;;
72611;SDS011;60655;52.182;4.474;2022-12-18T06:15:52;32.58;;;11.15;;
72611;SDS011;60655;52.182;4.474;2022-12-18T06:17:53;27.90;;;11.88;;
72611;SDS011;60655;52.182;4.474;2022-12-18T06:19:54;26.15;;;10.43;;
72611;SDS011;60655;52.182;4.474;2022-12-18T06:21:55;28.92;;;10.77;;
72611;SDS011;60655;52.182;4.474;2022-12-18T06:23:58;34.20;;;10.82;;
72611;SDS011;60655;52.182;4.474;2022-12-18T06:26:03;27.48;;;9.57;;
72611;SDS011;60655;52.182;4.474;2022-12-18T06:28:08;34.38;;;10.10;;
72611;SDS011;60655;52.182;4.474;2022-12-18T06:30:09;32.10;;;11.38;;
72611;SDS011;60655;52.182;4.474;2022-12-18T06:32:11;32.80;;;11.80;;
72611;SDS011;60655;52.182;4.474;2022-12-18T06:34:12;29.42;;;10.40;;
72611;SDS011;60655;52.182;4.474;2022-12-18T06:36:13;36.72;;;11.43;;
72611;SDS011;60655;52.182;4.474;2022-12-18T06:38:14;29.08;;;10.32;;
72611;SDS011;60655;52.182;4.474;2022-12-18T06:40:15;32.80;;;11.13;;
72611;SDS011;60655;52.182;4.474;2022-12-18T06:42:16;30.20;;;10.98;;
72611;SDS011;60655;52.182;4.474;2022-12-18T06:44:17;28.08;;;10.20;;
72611;SDS011;60655;52.182;4.474;2022-12-18T06:46:18;29.02;;;10.60;;
72611;SDS011;60655;52.182;4.474;2022-12-18T06:48:19;34.00;;;9.95;;
72611;SDS011;60655;52.182;4.474;2022-12-18T06:50:20;28.77;;;11.73;;
72611;SDS011;60655;52.182;4.474;2022-12-18T06:52:21;30.20;;;9.73;;
72611;SDS011;60655;52.182;4.474;2022-12-18T06:54:22;28.35;;;9.68;;
72611;SDS011;60655;52.182;4.474;2022-12-18T06:56:23;26.85;;;12.00;;
72611;SDS011;60655;52.182;4.474;2022-12-18T06:58:24;29.90;;;11.07;;
72611;SDS011;60655;52.182;4.474;2022-12-18T07:00:25;24.63;;;10.02;;
72611;SDS011;60655;52.182;4.474;2022-12-18T07:02:26;30.90;;;11.65;;
72611;SDS011;60655;52.182;4.474;2022-12-18T07:04:30;26.55;;;11.68;;
72611;SDS011;60655;52.182;4.474;2022-12-18T07:06:31;28.92;;;9.68;;
72611;SDS011;60655;52.182;4.474;2022-12-18T07:08:33;26.55;;;10.13;;
72611;SDS011;60655;52.182;4.474;2022-12-18T07:10:40;23.25;;;9.77;;
72611;SDS011;60655;52.182;4.474;2022-12-18T07:12:41;24.85;;;10.55;;
72611;SDS011;60655;52.182;4.474;2022-12-18T07:14:43;28.80;;;10.40;;
72611;SDS011;60655;52.182;4.474;2022-12-18T07:16:44;24.23;;;8.95;;
72611;SDS011;60655;52.182;4.474;2022-12-18T07:18:45;26.92;;;10.27;;
72611;SDS011;60655;52.182;4.474;2022-12-18T07:20:46;27.13;;;10.82;;
72611;SDS011;60655;52.182;4.474;2022-12-18T07:22:47;32.22;;;10.20;;
72611;SDS011;60655;52.182;4.474;2022-12-18T07:24:48;23.75;;;9.02;;
72611;SDS011;60655;52.182;4.474;2022-12-18T07:26:49;31.52;;;10.05;;
72611;SDS011;60655;52.182;4.474;2022-12-18T07:28:50;22.90;;;9.27;;
72611;SDS011;60655;52.182;4.474;2022-12-18T07:30:54;25.00;;;9.15;;
72611;SDS011;60655;52.182;4.474;2022-12-18T07:32:55;23.80;;;8.98;;
72611;SDS011;60655;52.182;4.474;2022-12-18T07:34:56;26.70;;;10.27;;
72611;SDS011;60655;52.182;4.474;2022-12-18T07:36:57;27.25;;;9.13;;
72611;SDS011;60655;52.182;4.474;2022-12-18T07:38:59;26.80;;;9.20;;
72611;SDS011;60655;52.182;4.474;2022-12-18T07:41:03;27.70;;;8.98;;
72611;SDS011;60655;52.182;4.474;2022-12-18T07:43:05;22.02;;;9.15;;
72611;SDS011;60655;52.182;4.474;2022-12-18T07:45:06;23.52;;;8.90;;
72611;SDS011;60655;52.182;4.474;2022-12-18T07:47:08;23.73;;;8.50;;
72611;SDS011;60655;52.182;4.474;2022-12-18T07:49:09;20.45;;;9.00;;
72611;SDS011;60655;52.182;4.474;2022-12-18T07:51:10;22.40;;;8.80;;
72611;SDS011;60655;52.182;4.474;2022-12-18T07:53:11;23.80;;;8.82;;
72611;SDS011;60655;52.182;4.474;2022-12-18T07:55:12;26.38;;;8.95;;
72611;SDS011;60655;52.182;4.474;2022-12-18T07:57:13;25.45;;;9.48;;
72611;SDS011;60655;52.182;4.474;2022-12-18T07:59:14;24.52;;;9.77;;
72611;SDS011;60655;52.182;4.474;2022-12-18T08:01:15;23.20;;;9.95;;
72611;SDS011;60655;52.182;4.474;2022-12-18T08:03:16;27.05;;;9.48;;
72611;SDS011;60655;52.182;4.474;2022-12-18T08:05:17;25.80;;;9.95;;
72611;SDS011;60655;52.182;4.474;2022-12-18T08:07:18;21.42;;;9.13;;
72611;SDS011;60655;52.182;4.474;2022-12-18T08:09:19;26.30;;;10.13;;
72611;SDS011;60655;52.182;4.474;2022-12-18T08:11:20;21.48;;;9.05;;
72611;SDS011;60655;52.182;4.474;2022-12-18T08:13:22;26.38;;;9.60;;
72611;SDS011;60655;52.182;4.474;2022-12-18T08:15:23;24.30;;;9.73;;
72611;SDS011;60655;52.182;4.474;2022-12-18T08:17:24;26.08;;;9.23;;
72611;SDS011;60655;52.182;4.474;2022-12-18T08:19:25;22.30;;;9.35;;
72611;SDS011;60655;52.182;4.474;2022-12-18T08:21:27;23.73;;;9.23;;
72611;SDS011;60655;52.182;4.474;2022-12-18T08:23:29;25.33;;;9.55;;
72611;SDS011;60655;52.182;4.474;2022-12-18T08:25:30;22.35;;;10.02;;
72611;SDS011;60655;52.182;4.474;2022-12-18T08:27:31;19.35;;;8.45;;
72611;SDS011;60655;52.182;4.474;2022-12-18T08:29:32;19.63;;;8.73;;
72611;SDS011;60655;52.182;4.474;2022-12-18T08:31:34;20.98;;;9.77;;
72611;SDS011;60655;52.182;4.474;2022-12-18T08:33:35;31.80;;;13.30;;
72611;SDS011;60655;52.182;4.474;2022-12-18T08:35:38;25.17;;;9.52;;
72611;SDS011;60655;52.182;4.474;2022-12-18T08:37:39;22.15;;;9.68;;
72611;SDS011;60655;52.182;4.474;2022-12-18T08:39:40;23.52;;;9.45;;
72611;SDS011;60655;52.182;4.474;2022-12-18T08:41:41;22.05;;;9.52;;
72611;SDS011;60655;52.182;4.474;2022-12-18T08:43:42;26.83;;;9.48;;
72611;SDS011;60655;52.182;4.474;2022-12-18T08:46:01;23.75;;;10.98;;
72611;SDS011;60655;52.182;4.474;2022-12-18T08:48:02;20.17;;;9.43;;
72611;SDS011;60655;52.182;4.474;2022-12-18T08:50:03;22.77;;;9.75;;
72611;SDS011;60655;52.182;4.474;2022-12-18T08:52:04;24.13;;;9.50;;
72611;SDS011;60655;52.182;4.474;2022-12-18T08:54:05;21.05;;;10.10;;
72611;SDS011;60655;52.182;4.474;2022-12-18T08:58:08;20.67;;;8.82;;
72611;SDS011;60655;52.182;4.474;2022-12-18T09:00:09;20.27;;;8.57;;
72611;SDS011;60655;52.182;4.474;2022-12-18T09:02:10;29.63;;;10.73;;
72611;SDS011;60655;52.182;4.474;2022-12-18T09:06:15;15.57;;;7.53;;
72611;SDS011;60655;52.182;4.474;2022-12-18T09:08:17;19.27;;;8.80;;
72611;SDS011;60655;52.182;4.474;2022-12-18T09:10:18;21.35;;;9.35;;
72611;SDS011;60655;52.182;4.474;2022-12-18T09:12:19;20.58;;;9.20;;
72611;SDS011;60655;52.182;4.474;2022-12-18T09:14:20;20.85;;;8.23;;
72611;SDS011;60655;52.182;4.474;2022-12-18T09:16:21;19.20;;;9.13;;
72611;SDS011;60655;52.182;4.474;2022-12-18T09:18:24;20.02;;;9.32;;
72611;SDS011;60655;52.182;4.474;2022-12-18T09:20:25;18.85;;;8.38;;
72611;SDS011;60655;52.182;4.474;2022-12-18T09:22:28;21.60;;;9.10;;
72611;SDS011;60655;52.182;4.474;2022-12-18T09:24:29;23.23;;;9.30;;
72611;SDS011;60655;52.182;4.474;2022-12-18T09:26:30;19.30;;;8.05;;
72611;SDS011;60655;52.182;4.474;2022-12-18T09:28:31;21.52;;;8.68;;
72611;SDS011;60655;52.182;4.474;2022-12-18T09:30:32;20.13;;;9.20;;
72611;SDS011;60655;52.182;4.474;2022-12-18T09:32:36;19.67;;;8.98;;
72611;SDS011;60655;52.182;4.474;2022-12-18T09:34:37;24.20;;;10.38;;
72611;SDS011;60655;52.182;4.474;2022-12-18T09:36:38;21.00;;;8.85;;
72611;SDS011;60655;52.182;4.474;2022-12-18T09:38:39;26.85;;;10.30;;
72611;SDS011;60655;52.182;4.474;2022-12-18T09:40:44;22.77;;;10.05;;
72611;SDS011;60655;52.182;4.474;2022-12-18T09:42:50;20.48;;;9.18;;
72611;SDS011;60655;52.182;4.474;2022-12-18T09:44:55;18.85;;;7.72;;
72611;SDS011;60655;52.182;4.474;2022-12-18T09:49:05;22.77;;;8.80;;
72611;SDS011;60655;52.182;4.474;2022-12-18T09:51:13;21.58;;;9.70;;
72611;SDS011;60655;52.182;4.474;2022-12-18T09:53:20;23.13;;;8.00;;
72611;SDS011;60655;52.182;4.474;2022-12-18T09:55:32;21.23;;;8.70;;
72611;SDS011;60655;52.182;4.474;2022-12-18T09:57:39;23.45;;;9.65;;
72611;SDS011;60655;52.182;4.474;2022-12-18T09:59:47;23.35;;;8.68;;
72611;SDS011;60655;52.182;4.474;2022-12-18T10:01:53;20.45;;;7.15;;
72611;SDS011;60655;52.182;4.474;2022-12-18T10:03:54;20.67;;;8.60;;
72611;SDS011;60655;52.182;4.474;2022-12-18T10:06:04;20.85;;;9.57;;
72611;SDS011;60655;52.182;4.474;2022-12-18T10:17:58;17.65;;;8.23;;
72611;SDS011;60655;52.182;4.474;2022-12-18T10:24:44;21.33;;;8.25;;
72611;SDS011;60655;52.182;4.474;2022-12-18T10:26:55;21.75;;;8.40;;
72611;SDS011;60655;52.182;4.474;2022-12-18T10:29:14;19.00;;;8.68;;
72611;SDS011;60655;52.182;4.474;2022-12-18T10:31:17;20.27;;;9.65;;
72611;SDS011;60655;52.182;4.474;2022-12-18T10:33:21;22.55;;;9.65;;
72611;SDS011;60655;52.182;4.474;2022-12-18T10:35:25;19.88;;;8.88;;
72611;SDS011;60655;52.182;4.474;2022-12-18T10:37:28;24.27;;;9.10;;
72611;SDS011;60655;52.182;4.474;2022-12-18T10:39:30;20.23;;;8.70;;
72611;SDS011;60655;52.182;4.474;2022-12-18T10:41:31;18.85;;;7.93;;
72611;SDS011;60655;52.182;4.474;2022-12-18T10:45:34;21.42;;;7.53;;
72611;SDS011;60655;52.182;4.474;2022-12-18T10:47:35;20.40;;;8.65;;
72611;SDS011;60655;52.182;4.474;2022-12-18T10:49:46;22.23;;;8.98;;
72611;SDS011;60655;52.182;4.474;2022-12-18T10:51:50;21.80;;;9.07;;
72611;SDS011;60655;52.182;4.474;2022-12-18T10:54:12;20.77;;;7.55;;
72611;SDS011;60655;52.182;4.474;2022-12-18T10:56:19;19.20;;;8.68;;
72611;SDS011;60655;52.182;4.474;2022-12-18T10:58:23;18.52;;;8.32;;
72611;SDS011;60655;52.182;4.474;2022-12-18T11:00:28;21.95;;;9.20;;
72611;SDS011;60655;52.182;4.474;2022-12-18T11:02:35;21.42;;;9.13;;
72611;SDS011;60655;52.182;4.474;2022-12-18T11:04:40;20.70;;;8.85;;
72611;SDS011;60655;52.182;4.474;2022-12-18T11:06:55;24.20;;;8.45;;
72611;SDS011;60655;52.182;4.474;2022-12-18T11:09:04;20.98;;;9.40;;
72611;SDS011;60655;52.182;4.474;2022-12-18T11:11:14;17.70;;;8.02;;
72611;SDS011;60655;52.182;4.474;2022-12-18T11:13:20;20.98;;;9.52;;
72611;SDS011;60655;52.182;4.474;2022-12-18T11:15:27;22.65;;;9.48;;
72611;SDS011;60655;52.182;4.474;2022-12-18T11:17:31;20.23;;;8.68;;
72611;SDS011;60655;52.182;4.474;2022-12-18T11:19:36;22.52;;;9.10;;
72611;SDS011;60655;52.182;4.474;2022-12-18T11:21:39;24.23;;;9.02;;
72611;SDS011;60655;52.182;4.474;2022-12-18T11:23:51;19.40;;;8.57;;
72611;SDS011;60655;52.182;4.474;2022-12-18T11:26:01;18.35;;;7.95;;
72611;SDS011;60655;52.182;4.474;2022-12-18T11:28:05;21.13;;;8.90;;
72611;SDS011;60655;52.182;4.474;2022-12-18T11:30:38;25.35;;;9.75;;
72611;SDS011;60655;52.182;4.474;2022-12-18T11:32:40;21.17;;;8.45;;
72611;SDS011;60655;52.182;4.474;2022-12-18T11:34:48;21.27;;;8.00;;
72611;SDS011;60655;52.182;4.474;2022-12-18T11:36:53;20.98;;;8.93;;
72611;SDS011;60655;52.182;4.474;2022-12-18T11:38:55;16.63;;;8.35;;
72611;SDS011;60655;52.182;4.474;2022-12-18T11:41:19;20.80;;;8.38;;
72611;SDS011;60655;52.182;4.474;2022-12-18T11:43:54;18.40;;;7.00;;
72611;SDS011;60655;52.182;4.474;2022-12-18T11:46:01;22.10;;;8.80;;
72611;SDS011;60655;52.182;4.474;2022-12-18T11:48:28;20.90;;;8.73;;
72611;SDS011;60655;52.182;4.474;2022-12-18T11:52:39;22.08;;;8.60;;
72611;SDS011;60655;52.182;4.474;2022-12-18T11:54:40;20.67;;;9.23;;
72611;SDS011;60655;52.182;4.474;2022-12-18T11:58:50;19.92;;;8.05;;
72611;SDS011;60655;52.182;4.474;2022-12-18T12:01:11;19.48;;;7.88;;
72611;SDS011;60655;52.182;4.474;2022-12-18T12:03:39;23.75;;;8.82;;
72611;SDS011;60655;52.182;4.474;2022-12-18T12:07:58;22.42;;;8.48;;
72611;SDS011;60655;52.182;4.474;2022-12-18T12:21:51;17.63;;;8.50;;
72611;SDS011;60655;52.182;4.474;2022-12-18T12:26:30;16.60;;;7.78;;
72611;SDS011;60655;52.182;4.474;2022-12-18T12:31:11;21.77;;;8.30;;
72611;SDS011;60655;52.182;4.474;2022-12-18T12:35:57;17.17;;;7.30;;
72611;SDS011;60655;52.182;4.474;2022-12-18T12:38:45;19.88;;;9.27;;
72611;SDS011;60655;52.182;4.474;2022-12-18T12:40:58;23.05;;;8.27;;
72611;SDS011;60655;52.182;4.474;2022-12-18T12:43:03;17.42;;;8.30;;
72611;SDS011;60655;52.182;4.474;2022-12-18T12:45:17;18.50;;;7.88;;
72611;SDS011;60655;52.182;4.474;2022-12-18T12:47:28;17.08;;;7.30;;
72611;SDS011;60655;52.182;4.474;2022-12-18T12:49:36;21.20;;;7.53;;
72611;SDS011;60655;52.182;4.474;2022-12-18T12:51:40;23.98;;;10.18;;
72611;SDS011;60655;52.182;4.474;2022-12-18T12:53:44;21.80;;;10.18;;
72611;SDS011;60655;52.182;4.474;2022-12-18T12:55:46;20.73;;;9.23;;
72611;SDS011;60655;52.182;4.474;2022-12-18T12:57:53;20.48;;;8.82;;
72611;SDS011;60655;52.182;4.474;2022-12-18T13:00:09;23.75;;;9.35;;
72611;SDS011;60655;52.182;4.474;2022-12-18T13:04:55;19.77;;;8.85;;
72611;SDS011;60655;52.182;4.474;2022-12-18T13:07:08;21.25;;;8.88;;
72611;SDS011;60655;52.182;4.474;2022-12-18T13:09:15;17.77;;;8.15;;
72611;SDS011;60655;52.182;4.474;2022-12-18T13:11:28;19.73;;;8.07;;
72611;SDS011;60655;52.182;4.474;2022-12-18T13:13:51;18.40;;;7.75;;
72611;SDS011;60655;52.182;4.474;2022-12-18T13:16:04;25.27;;;9.07;;
72611;SDS011;60655;52.182;4.474;2022-12-18T13:20:14;19.55;;;8.40;;
72611;SDS011;60655;52.182;4.474;2022-12-18T13:22:22;26.52;;;9.80;;
72611;SDS011;60655;52.182;4.474;2022-12-18T13:24:26;26.45;;;10.52;;
72611;SDS011;60655;52.182;4.474;2022-12-18T13:26:31;17.48;;;7.53;;
72611;SDS011;60655;52.182;4.474;2022-12-18T13:32:35;18.45;;;8.00;;
72611;SDS011;60655;52.182;4.474;2022-12-18T13:34:36;19.33;;;8.40;;
72611;SDS011;60655;52.182;4.474;2022-12-18T13:36:37;18.13;;;7.40;;
72611;SDS011;60655;52.182;4.474;2022-12-18T13:38:38;22.83;;;8.80;;